• Join FlightAware (Why Join?)
  • Login
  • US Flag 
07:34PM EDT


 

Airport Tracker/Info


-or-


 

Live Flight TrackerFlight Track Log ✈ SWA471 ✈ 13-Apr-2013 ✈ KLAS - KAUS

Flight Track Log - Related Links

Times and Time Zones

All times are in EDT time to prevent confusion due to time zone crossing. See the SWA471 flight status page for this flight to view local times or setup timezone preferences in your user account.

Time Position Orientation Groundspeed Altitude Reporting Facility
EDT Latitude Longitude Course Direction KTS MPH feet Rate Location/Type
11:22PM 36.0769 -115.1625 266° West 128 147 3,600  Level Los Angeles Center
11:23PM 36.0725 -115.2411 266° West 237 273 6,300 2,880 Climbing Los Angeles Center
11:24PM 36.0028 -115.2881 209° Southwest 295 339 9,800 2,460 Climbing Los Angeles Center
11:24PM 36.0006 -115.2881 180° South 277 319 9,900 3,720 Climbing Los Angeles Center
11:25PM 35.8822 -115.2594 169° South 311 358 15,200 4,320 Climbing Los Angeles Center
11:26PM 35.8403 -115.1506 115° Southeast 354 407 18,800 2,220 Climbing Los Angeles Center
11:27PM 35.8275 -115.0128 96° East 415 478 19,800 1,800 Climbing Los Angeles Center
11:28PM 35.8417 -114.8589 83° East 453 521 22,500 2,340 Climbing Los Angeles Center
11:29PM 35.8556 -114.6997 84° East 468 539 24,600 1,860 Climbing Los Angeles Center
11:30PM 35.8703 -114.5317 84° East 489 563 26,400 1,800 Climbing Los Angeles Center
11:31PM 35.8844 -114.3556 84° East 511 588 28,400 2,280 Climbing Los Angeles Center
11:32PM 35.9006 -114.1800 83° East 517 595 31,100 2,580 Climbing Los Angeles Center
11:33PM 35.9175 -113.9736 84° East 507 583 33,700 1,860 Climbing Los Angeles Center
11:34PM 35.9039 -113.7989 95° East 515 593 35,000 600 Climbing Los Angeles Center
11:35PM 35.8658 -113.6228 105° East 529 609 35,000  Level Los Angeles Center
11:36PM 35.8347 -113.4675 104° East 525 604 35,000  Level Los Angeles Center
11:37PM 35.7989 -113.2953 104° East 520 598 35,000  Level Los Angeles Center
11:38PM 35.7619 -113.1222 105° East 521 600 35,000  Level Los Angeles Center
11:39PM 35.7189 -112.9150 104° East 519 597 35,000  Level Los Angeles Center
11:40PM 35.6822 -112.7422 105° East 519 597 35,000  Level Los Angeles Center
11:41PM 35.6447 -112.5694 105° East 520 598 35,000  Level Los Angeles Center
11:43PM 35.6075 -112.3967 105° East 521 600 35,000  Level Los Angeles Center
11:43PM 35.5894 -112.3297 108° East 522 601 35,000  Level Albuquerque Center
11:44PM 35.5186 -112.1292 113° Southeast 533 613 35,000  Level Albuquerque Center
11:45PM 35.4647 -111.9608 111° Southeast 533 613 35,000 600 Level Albuquerque Center
11:46PM 35.4200 -111.7914 108° East 527 606 36,300 1,620 Climbing Albuquerque Center
11:47PM 35.3722 -111.6258 109° East 521 600 38,300 1,680 Climbing Albuquerque Center
11:48PM 35.3247 -111.4636 110° East 512 589 39,800 960 Climbing Albuquerque Center
11:49PM 35.2742 -111.2881 109° East 518 596 40,300 540 Climbing Albuquerque Center
11:50PM 35.2258 -111.1233 110° East 517 595 41,000 300 Climbing Albuquerque Center
11:51PM 35.1847 -110.9836 110° East 487 560 41,000 -240 Level Albuquerque Center
11:52PM 35.1336 -110.8106 110° East 483 556 40,600 -1,020 Descending Albuquerque Center
11:53PM 35.0911 -110.6644 110° East 481 554 39,000 -840 Descending Albuquerque Center
11:54PM 35.0475 -110.5119 109° East 489 563 39,000  Level Albuquerque Center
11:55PM 34.9925 -110.3308 110° East 502 578 39,000  Level Albuquerque Center
11:56PM 34.9458 -110.1744 110° East 509 586 39,000  Level Albuquerque Center
11:57PM 34.8964 -110.0122 110° East 523 602 39,000  Level Albuquerque Center
11:58PM 34.8392 -109.8269 111° Southeast 525 604 39,000  Level Albuquerque Center
11:59PM 34.7903 -109.6700 111° Southeast 522 601 39,000  Level Albuquerque Center
12:00AM 34.7431 -109.5133 110° East 519 597 39,000  Level Albuquerque Center
12:01AM 34.6872 -109.3356 111° Southeast 510 587 39,000  Level Albuquerque Center
12:02AM 34.6392 -109.1819 111° Southeast 508 585 39,000  Level Albuquerque Center
12:03AM 34.5917 -109.0269 110° East 512 589 39,000  Level Albuquerque Center
12:04AM 34.5336 -108.8481 111° Southeast 512 589 39,000  Level Albuquerque Center
12:05AM 34.4858 -108.6969 111° Southeast 508 585 39,000  Level Albuquerque Center
12:06AM 34.4372 -108.5456 111° Southeast 505 581 39,000  Level Albuquerque Center
12:07AM 34.3894 -108.3939 111° Southeast 507 583 39,000  Level Albuquerque Center
12:08AM 34.3392 -108.2367 111° Southeast 504 580 39,000  Level Albuquerque Center
12:09AM 34.2828 -108.0711 112° Southeast 510 587 39,000  Level Albuquerque Center
12:10AM 34.2314 -107.9142 112° Southeast 507 583 39,000  Level Albuquerque Center
12:11AM 34.1811 -107.7600 111° Southeast 499 574 39,000  Level Albuquerque Center
12:12AM 34.1294 -107.6039 112° Southeast 499 574 39,000  Level Albuquerque Center
12:13AM 34.0778 -107.4464 112° Southeast 502 578 39,000  Level Albuquerque Center
12:14AM 34.0264 -107.2908 112° Southeast 501 577 39,000 -60 Level Albuquerque Center
12:15AM 33.9756 -107.1381 112° Southeast 496 571 38,900 -1,320 Descending Albuquerque Center
12:16AM 33.9253 -106.9892 112° Southeast 487 560 36,400 -2,040 Descending Albuquerque Center
12:17AM 33.8722 -106.8308 112° Southeast 496 571 34,900 -720 Descending Albuquerque Center
12:18AM 33.8183 -106.6758 113° Southeast 502 578 35,000  Climbing Albuquerque Center
12:19AM 33.7653 -106.5203 112° Southeast 502 578 35,000  Level Albuquerque Center
12:20AM 33.7117 -106.3628 112° Southeast 504 580 35,000  Level Albuquerque Center
12:21AM 33.6581 -106.2047 112° Southeast 508 585 35,000  Level Albuquerque Center
12:22AM 33.6039 -106.0506 113° Southeast 506 582 35,000  Level Albuquerque Center
12:23AM 33.5511 -105.8961 112° Southeast 501 577 35,000  Level Albuquerque Center
12:24AM 33.4872 -105.7133 113° Southeast 495 570 35,000  Level Albuquerque Center
12:25AM 33.4347 -105.5650 113° Southeast 501 577 35,000  Level Albuquerque Center
12:26AM 33.3756 -105.4019 113° Southeast 499 574 35,000  Level Albuquerque Center
12:27AM 33.3236 -105.2486 112° Southeast 499 574 35,000  Level Albuquerque Center
12:28AM 33.2689 -105.0958 113° Southeast 501 577 35,000  Level Albuquerque Center
12:29AM 33.2139 -104.9428 113° Southeast 502 578 35,000  Level Albuquerque Center
12:30AM 33.1586 -104.7914 114° Southeast 500 575 35,000  Level Albuquerque Center
12:31AM 33.1044 -104.6386 113° Southeast 504 580 35,000  Level Albuquerque Center
12:32AM 33.0492 -104.4847 113° Southeast 508 585 35,000  Level Albuquerque Center
12:33AM 32.9931 -104.3300 113° Southeast 510 587 35,000  Level Albuquerque Center
12:34AM 32.9339 -104.1656 113° Southeast 507 583 35,000  Level Albuquerque Center
12:35AM 32.8778 -104.0133 114° Southeast 503 579 35,000  Level Albuquerque Center
12:37AM 32.8222 -103.8619 114° Southeast 501 577 35,000  Level Albuquerque Center
12:38AM 32.7706 -103.7197 113° Southeast 500 575 35,000  Level Albuquerque Center
12:39AM 32.7153 -103.5719 114° Southeast 494 568 35,000  Level Albuquerque Center
12:40AM 32.6583 -103.4225 114° Southeast 498 573 35,000  Level Albuquerque Center
12:40AM 32.6097 -103.2972 115° Southeast 493 567 35,000  Level Fort Worth Center
12:41AM 32.5486 -103.1283 113° Southeast 498 573 35,000  Level Fort Worth Center
12:42AM 32.4886 -102.9767 115° Southeast 507 583 35,000  Level Fort Worth Center
12:43AM 32.4306 -102.8278 115° Southeast 507 583 35,000  Level Fort Worth Center
12:44AM 32.3722 -102.6794 115° Southeast 502 578 35,000  Level Fort Worth Center
12:45AM 32.3133 -102.5333 115° Southeast 497 572 35,000  Level Fort Worth Center
12:46AM 32.2589 -102.3878 114° Southeast 497 572 35,000  Level Fort Worth Center
12:47AM 32.2039 -102.2450 114° Southeast 492 566 35,000  Level Fort Worth Center
12:48AM 32.1489 -102.0997 114° Southeast 486 559 35,000  Level Fort Worth Center
12:49AM 32.1053 -101.9747 112° Southeast 478 550 35,000  Level Fort Worth Center
12:50AM 32.0497 -101.8397 116° Southeast 470 541 35,000  Level Fort Worth Center
12:51AM 31.9964 -101.6950 113° Southeast 470 541 35,000  Level Fort Worth Center
12:52AM 31.9422 -101.5603 115° Southeast 470 541 35,000  Level Fort Worth Center
12:53AM 31.8864 -101.4183 115° Southeast 470 541 35,000  Level Fort Worth Center
12:54AM 31.8281 -101.2814 117° Southeast 470 541 35,000  Level Fort Worth Center
12:55AM 31.7739 -101.1422 115° Southeast 470 541 35,000  Level Fort Worth Center
12:56AM 31.7153 -101.0031 116° Southeast 470 541 35,000  Level Fort Worth Center
12:57AM 31.6628 -100.8619 114° Southeast 470 541 35,000  Level Fort Worth Center
12:59AM 31.5528 -100.6006 116° Southeast 476 548 35,000  Level Houston Center
01:00AM 31.4947 -100.4600 116° Southeast 478 550 35,000  Level Houston Center
01:01AM 31.4389 -100.3200 115° Southeast 475 547 35,000  Level Houston Center
01:02AM 31.3806 -100.1778 116° Southeast 482 555 35,000  Level Houston Center
01:03AM 31.3214 -100.0369 116° Southeast 482 555 35,000  Level Houston Center
01:04AM 31.2622 -99.8958 116° Southeast 481 554 35,000  Level Houston Center
01:05AM 31.1972 -99.7592 119° Southeast 479 551 35,000  Level Houston Center
01:06AM 31.1339 -99.6236 119° Southeast 477 549 35,000  Level Houston Center
01:07AM 31.0692 -99.4867 119° Southeast 480 552 35,000  Level Houston Center
01:08AM 31.0056 -99.3489 118° Southeast 481 554 35,000 -540 Level Houston Center
01:09AM 30.9394 -99.2122 119° Southeast 482 555 34,000 -2,340 Descending Houston Center
01:10AM 30.8744 -99.0742 119° Southeast 477 549 30,400 -3,540 Descending Houston Center
01:11AM 30.8081 -98.9375 119° Southeast 480 552 26,900 -3,300 Descending Houston Center
01:12AM 30.7453 -98.8053 119° Southeast 470 541 23,800 -3,000 Descending Houston Center
01:13AM 30.6850 -98.6797 119° Southeast 450 518 20,900 -2,940 Descending Houston Center
01:14AM 30.6281 -98.5597 119° Southeast 429 494 18,000 -2,700 Descending Houston Center
01:15AM 30.5717 -98.4458 120° Southeast 411 473 15,200 -2,520 Descending Houston Center
01:16AM 30.5192 -98.3356 119° Southeast 394 453 12,600 -1,920 Descending Houston Center
01:17AM 30.4686 -98.2306 119° Southeast 378 435 11,400 -1,020 Descending Houston Center
01:18AM 30.4272 -98.1433 119° Southeast 323 372 10,600 -1,200 Descending Houston Center
01:19AM 30.3856 -98.0606 120° Southeast 301 346 9,000 -1,620 Descending Houston Center
01:20AM 30.3581 -97.9742 110° East 290 334 7,400 -1,680 Descending Houston Center
01:21AM 30.3267 -97.8794 111° Southeast 281 323 5,700 -1,560 Descending Houston Center
01:22AM 30.3031 -97.8061 110° East 276 318 4,300 -960 Descending Houston Center
01:23AM 30.2839 -97.7417 109° East 220 253 3,800 -960 Descending Houston Center
01:24AM 30.2797 -97.6958 96° East 156 180 2,400 -1,260 Descending Houston Center
01:26AM 30.2494 -97.6811 157° South 137 158 1,300 -660 Descending Houston Center
01:27AM 30.2167 -97.6769 174° South 134 154 1,100 -240 Descending Houston Center
01:28AM 30.1945 -97.6699 128° Southeast  Level Estimated
01:35AM 30.1945 -97.6699 128° Southeast  Level Estimated